createdAt,value
2023-02-11T00:00:16.812Z,20.64
2023-02-11T00:02:49.448Z,20.64
2023-02-11T00:05:21.987Z,20.69
2023-02-11T00:07:54.543Z,20.58
2023-02-11T00:10:27.151Z,20.59
2023-02-11T00:12:59.705Z,20.54
2023-02-11T00:15:32.208Z,20.57
2023-02-11T00:18:04.753Z,20.57
2023-02-11T00:20:40.080Z,20.54
2023-02-11T00:23:13.375Z,20.50
2023-02-11T00:25:45.963Z,20.61
2023-02-11T00:28:18.471Z,20.56
2023-02-11T00:30:56.569Z,20.51
2023-02-11T00:33:29.136Z,20.44
2023-02-11T00:36:14.298Z,20.57
2023-02-11T00:38:48.341Z,20.50
2023-02-11T00:41:22.023Z,20.49
2023-02-11T00:43:54.572Z,20.50
2023-02-11T00:46:27.220Z,20.57
2023-02-11T00:48:59.726Z,20.50
2023-02-11T00:51:32.464Z,20.54
2023-02-11T00:54:06.554Z,20.51
2023-02-11T00:56:39.147Z,20.60
2023-02-11T00:59:11.644Z,20.45
2023-02-11T01:01:44.269Z,20.48
2023-02-11T01:04:16.852Z,20.45
2023-02-11T01:06:50.544Z,20.47
2023-02-11T01:09:23.053Z,20.48
2023-02-11T01:11:55.562Z,20.36
2023-02-11T01:14:28.007Z,20.39
2023-02-11T01:17:00.494Z,20.36
2023-02-11T01:19:33.114Z,20.29
2023-02-11T01:22:06.485Z,20.28
2023-02-11T01:24:38.995Z,20.36
2023-02-11T01:27:11.507Z,20.30
2023-02-11T01:29:44.008Z,20.25
2023-02-11T01:32:16.721Z,20.23
2023-02-11T01:34:50.102Z,20.24
2023-02-11T01:37:22.634Z,20.29
2023-02-11T01:39:55.161Z,20.28
2023-02-11T01:42:28.626Z,20.28
2023-02-11T01:45:57.602Z,20.31
2023-02-11T01:48:36.434Z,20.26
2023-02-11T01:51:24.107Z,20.23
2023-02-11T01:54:16.667Z,20.27
2023-02-11T01:57:13.415Z,20.18
2023-02-11T02:00:01.829Z,20.23
2023-02-11T02:02:37.213Z,20.25
2023-02-11T02:05:34.545Z,20.26
2023-02-11T02:08:27.659Z,20.13
2023-02-11T02:11:00.960Z,20.20
2023-02-11T02:13:35.933Z,20.24
2023-02-11T02:16:14.353Z,20.15
2023-02-11T02:19:41.480Z,20.24
2023-02-11T02:23:20.844Z,20.17
2023-02-11T02:26:39.523Z,20.25
2023-02-11T02:29:36.899Z,20.22
2023-02-11T02:32:41.167Z,20.13
2023-02-11T02:35:39.098Z,20.14
2023-02-11T02:38:13.612Z,20.08
2023-02-11T02:40:54.827Z,20.02
2023-02-11T02:43:29.292Z,19.98
2023-02-11T02:46:18.135Z,20.01
2023-02-11T02:48:52.888Z,20.04
2023-02-11T02:51:52.615Z,20.08
2023-02-11T02:55:00.525Z,20.09
2023-02-11T02:57:58.504Z,20.10
2023-02-11T03:01:08.460Z,20.08
2023-02-11T03:04:03.267Z,19.95
2023-02-11T03:06:48.178Z,20.15
2023-02-11T03:09:37.923Z,20.11
2023-02-11T03:12:13.422Z,20.06
2023-02-11T03:14:50.080Z,19.95
2023-02-11T03:17:26.016Z,19.94
2023-02-11T03:20:00.512Z,19.99
2023-02-11T03:22:42.780Z,19.95
2023-02-11T03:25:16.375Z,19.83
2023-02-11T03:28:04.838Z,19.98
2023-02-11T03:30:51.621Z,19.96
2023-02-11T03:33:53.048Z,19.99
2023-02-11T03:36:45.964Z,19.98
2023-02-11T03:39:28.688Z,19.86
2023-02-11T03:42:03.965Z,19.90
2023-02-11T03:44:46.258Z,19.84
2023-02-11T03:47:26.098Z,19.83
2023-02-11T03:50:02.857Z,19.85
2023-02-11T03:52:38.025Z,19.80
2023-02-11T03:55:17.793Z,19.90
2023-02-11T03:57:50.334Z,19.82
2023-02-11T04:00:36.541Z,19.82
2023-02-11T04:03:10.833Z,19.91
2023-02-11T04:05:43.327Z,19.81
2023-02-11T04:08:15.845Z,19.84
2023-02-11T04:10:48.292Z,19.79
2023-02-11T04:13:20.795Z,19.79
2023-02-11T04:15:53.670Z,19.74
2023-02-11T04:18:26.329Z,19.79
2023-02-11T04:20:58.881Z,19.85
2023-02-11T04:23:31.799Z,19.76
2023-02-11T04:26:04.632Z,19.78
2023-02-11T04:28:37.197Z,19.88
2023-02-11T04:31:11.914Z,19.81
2023-02-11T04:33:44.470Z,19.81
2023-02-11T04:36:17.183Z,19.79
2023-02-11T04:38:49.645Z,19.76
2023-02-11T04:41:22.097Z,19.78
2023-02-11T04:43:54.696Z,19.73
2023-02-11T04:46:27.686Z,19.74
2023-02-11T04:49:00.205Z,19.75
2023-02-11T04:51:32.930Z,19.74
2023-02-11T04:54:05.625Z,19.74
2023-02-11T04:56:38.619Z,19.81
2023-02-11T04:59:13.212Z,19.67
2023-02-11T05:01:45.775Z,19.73
2023-02-11T05:04:18.820Z,19.69
2023-02-11T05:06:51.306Z,19.64
2023-02-11T05:09:23.786Z,19.64
2023-02-11T05:11:56.250Z,19.71
2023-02-11T05:14:28.726Z,19.71
2023-02-11T05:17:01.321Z,19.63
2023-02-11T05:19:33.928Z,19.69
2023-02-11T05:22:06.464Z,19.67
2023-02-11T05:24:39.016Z,19.61
2023-02-11T05:27:11.566Z,19.63
2023-02-11T05:29:44.118Z,19.66
2023-02-11T05:32:16.578Z,19.60
2023-02-11T05:34:49.091Z,19.65
2023-02-11T05:37:21.764Z,19.72
2023-02-11T05:39:54.310Z,19.69
2023-02-11T05:42:26.982Z,19.64
2023-02-11T05:44:59.591Z,19.69
2023-02-11T05:47:32.064Z,19.58
2023-02-11T05:50:05.094Z,19.61
2023-02-11T05:52:37.550Z,19.64
2023-02-11T05:55:10.523Z,19.58
2023-02-11T05:57:43.127Z,19.67
2023-02-11T06:00:16.374Z,19.57
2023-02-11T06:02:48.996Z,19.54
2023-02-11T06:05:21.617Z,19.66
2023-02-11T06:07:54.181Z,19.66
2023-02-11T06:10:27.373Z,19.61
2023-02-11T06:13:01.757Z,19.64
2023-02-11T06:15:34.327Z,19.62
2023-02-11T06:18:07.956Z,19.58
2023-02-11T06:20:41.443Z,19.63
2023-02-11T06:23:14.171Z,19.59
2023-02-11T06:25:46.750Z,19.59
2023-02-11T06:28:19.945Z,19.68
2023-02-11T06:30:52.499Z,19.67
2023-02-11T06:33:25.284Z,19.72
2023-02-11T06:35:57.764Z,19.73
2023-02-11T06:38:30.391Z,19.78
2023-02-11T06:41:02.979Z,19.83
2023-02-11T06:43:35.485Z,19.86
2023-02-11T06:46:09.280Z,19.92
2023-02-11T06:48:44.654Z,19.96
2023-02-11T06:51:18.398Z,20.04
2023-02-11T06:53:51.094Z,20.10
2023-02-11T06:56:27.249Z,20.15
2023-02-11T06:59:00.379Z,20.22
2023-02-11T07:01:33.208Z,20.31
2023-02-11T07:04:06.735Z,20.40
2023-02-11T07:06:39.182Z,20.39
2023-02-11T07:09:11.740Z,20.43
2023-02-11T07:11:44.308Z,20.46
2023-02-11T07:14:16.926Z,20.49
2023-02-11T07:16:49.391Z,20.53
2023-02-11T07:19:21.935Z,20.52
2023-02-11T07:21:55.186Z,20.57
2023-02-11T07:24:27.716Z,20.65
2023-02-11T07:27:00.229Z,20.60
2023-02-11T07:29:33.192Z,20.60
2023-02-11T07:32:05.978Z,20.65
2023-02-11T07:34:38.665Z,20.63
2023-02-11T07:37:11.239Z,20.67
2023-02-11T07:39:43.735Z,20.66
2023-02-11T07:42:16.311Z,20.66
2023-02-11T07:44:50.560Z,20.69
2023-02-11T07:47:23.237Z,20.69
2023-02-11T07:49:56.765Z,20.67
2023-02-11T07:52:31.039Z,20.70
2023-02-11T07:55:04.935Z,20.91
2023-02-11T07:57:37.822Z,20.79
2023-02-11T08:00:11.399Z,20.76
2023-02-11T08:02:43.882Z,20.74
2023-02-11T08:05:16.543Z,20.73
2023-02-11T08:07:53.373Z,20.73
2023-02-11T08:10:25.855Z,20.73
2023-02-11T08:12:58.385Z,20.71
2023-02-11T08:15:30.896Z,20.76
2023-02-11T08:18:03.435Z,20.78
2023-02-11T08:20:35.880Z,20.83
2023-02-11T08:23:08.405Z,20.83
2023-02-11T08:25:40.960Z,20.89
2023-02-11T08:28:13.565Z,20.84
2023-02-11T08:30:46.094Z,20.86
2023-02-11T08:33:18.650Z,20.89
2023-02-11T08:35:51.436Z,20.91
2023-02-11T08:38:23.931Z,20.97
2023-02-11T08:40:56.419Z,20.97
2023-02-11T08:43:29.129Z,21.00
2023-02-11T08:46:02.550Z,21.03
2023-02-11T08:48:35.842Z,21.07
2023-02-11T08:51:20.157Z,21.10
2023-02-11T08:53:53.777Z,21.09
2023-02-11T08:56:27.719Z,21.12
2023-02-11T08:59:00.236Z,21.14
2023-02-11T09:01:33.771Z,21.16
2023-02-11T09:04:06.369Z,21.19
2023-02-11T09:06:39.822Z,21.21
2023-02-11T09:09:16.900Z,21.23
2023-02-11T09:11:49.363Z,21.24
2023-02-11T09:14:24.135Z,21.23
2023-02-11T09:16:57.357Z,21.25
2023-02-11T09:19:29.995Z,21.25
2023-02-11T09:22:02.673Z,21.23
2023-02-11T09:24:35.225Z,21.26
2023-02-11T09:27:07.754Z,21.29
2023-02-11T09:29:40.250Z,21.26
2023-02-11T09:32:12.979Z,21.26
2023-02-11T09:34:45.676Z,21.29
2023-02-11T09:37:18.221Z,21.31
2023-02-11T09:39:50.736Z,21.31
2023-02-11T09:42:53.602Z,21.40
2023-02-11T09:45:29.914Z,21.30
2023-02-11T09:48:31.080Z,21.33
2023-02-11T09:51:05.731Z,21.32
2023-02-11T09:53:43.164Z,21.29
2023-02-11T09:56:16.052Z,21.33
2023-02-11T09:58:48.633Z,21.34
2023-02-11T10:01:37.026Z,21.33
2023-02-11T10:04:28.419Z,21.44
2023-02-11T10:07:19.049Z,21.40
2023-02-11T10:10:22.445Z,21.47
2023-02-11T10:13:07.919Z,21.39
2023-02-11T10:15:51.991Z,21.42
2023-02-11T10:18:49.290Z,21.43
2023-02-11T10:21:51.469Z,21.44
2023-02-11T10:24:25.083Z,21.40
2023-02-11T10:26:58.307Z,21.42
2023-02-11T10:29:46.100Z,21.50
2023-02-11T10:33:03.038Z,21.56
2023-02-11T10:35:38.473Z,21.46
2023-02-11T10:38:12.080Z,21.45
2023-02-11T10:40:44.981Z,21.48
2023-02-11T10:43:23.568Z,21.46
2023-02-11T10:45:57.621Z,21.47
2023-02-11T10:48:51.482Z,21.74
2023-02-11T10:51:34.163Z,21.51
2023-02-11T10:54:19.170Z,21.51
2023-02-11T10:57:00.027Z,21.52
2023-02-11T10:59:40.267Z,21.53
2023-02-11T11:02:34.365Z,21.56
2023-02-11T11:05:18.581Z,21.57
2023-02-11T11:08:02.282Z,21.57
2023-02-11T11:10:44.055Z,21.63
2023-02-11T11:13:27.188Z,21.50
2023-02-11T11:16:17.100Z,21.54
2023-02-11T11:19:16.284Z,21.43
2023-02-11T11:21:55.176Z,21.47
2023-02-11T11:24:44.531Z,21.45
2023-02-11T11:27:23.238Z,21.40
2023-02-11T11:29:56.854Z,21.44
2023-02-11T11:32:33.484Z,21.46
2023-02-11T11:35:23.546Z,21.45
2023-02-11T11:38:02.358Z,21.48
2023-02-11T11:40:36.723Z,21.48
2023-02-11T11:43:23.028Z,21.48
2023-02-11T11:45:59.562Z,21.45
2023-02-11T11:48:42.640Z,21.47
2023-02-11T11:51:15.633Z,21.48
2023-02-11T11:54:04.911Z,21.48
2023-02-11T11:57:08.106Z,21.51
2023-02-11T11:59:41.521Z,21.52
2023-02-11T12:03:04.754Z,21.58
2023-02-11T12:06:18.507Z,21.55
2023-02-11T12:09:15.357Z,21.52
2023-02-11T12:12:32.379Z,21.53
2023-02-11T12:15:26.380Z,21.57
2023-02-11T12:18:36.023Z,21.61
2023-02-11T12:21:41.159Z,21.58
2023-02-11T12:24:27.550Z,21.64
2023-02-11T12:27:14.312Z,21.53
2023-02-11T12:30:26.928Z,21.55
2023-02-11T12:33:44.718Z,21.56
2023-02-11T12:36:32.105Z,21.58
2023-02-11T12:39:22.731Z,21.56
2023-02-11T12:43:03.640Z,21.68
2023-02-11T12:45:44.935Z,21.57
2023-02-11T12:48:59.283Z,21.51
2023-02-11T12:51:55.433Z,21.55
2023-02-11T12:54:56.767Z,21.54
2023-02-11T12:57:36.166Z,21.57
2023-02-11T13:00:26.399Z,21.64
2023-02-11T13:03:10.964Z,21.58
2023-02-11T13:05:52.510Z,21.59
2023-02-11T13:08:33.699Z,21.60
2023-02-11T13:11:17.646Z,21.64
2023-02-11T13:14:00.536Z,21.65
2023-02-11T13:16:44.557Z,21.62
2023-02-11T13:19:30.307Z,21.63
2023-02-11T13:22:13.259Z,21.62
2023-02-11T13:25:06.093Z,21.68
2023-02-11T13:27:58.364Z,21.64
2023-02-11T13:30:36.762Z,21.65
2023-02-11T13:33:32.630Z,21.69
2023-02-11T13:36:05.056Z,21.65
2023-02-11T13:38:38.780Z,21.63
2023-02-11T13:41:21.157Z,21.66
2023-02-11T13:44:26.567Z,21.79
2023-02-11T13:47:04.908Z,21.70
2023-02-11T13:49:42.368Z,21.66
2023-02-11T13:52:27.599Z,21.73
2023-02-11T13:55:22.462Z,21.75
2023-02-11T13:58:06.956Z,21.74
2023-02-11T14:00:39.370Z,21.67
2023-02-11T14:03:30.352Z,21.72
2023-02-11T14:06:27.370Z,21.68
2023-02-11T14:09:09.003Z,21.69
2023-02-11T14:11:41.791Z,21.78
2023-02-11T14:14:25.829Z,21.80
2023-02-11T14:16:58.340Z,21.85
2023-02-11T14:19:40.286Z,21.92
2023-02-11T14:22:29.824Z,21.88
2023-02-11T14:25:15.397Z,21.87
2023-02-11T14:28:16.725Z,21.88
2023-02-11T14:31:07.632Z,21.89
2023-02-11T14:34:28.727Z,22.00
2023-02-11T14:37:50.310Z,21.92
2023-02-11T14:40:34.242Z,21.96
2023-02-11T14:43:16.869Z,22.00
2023-02-11T14:45:56.257Z,21.90
2023-02-11T14:48:37.475Z,21.86
2023-02-11T14:51:18.687Z,21.78
2023-02-11T14:54:00.456Z,21.74
2023-02-11T14:56:34.404Z,21.79
2023-02-11T14:59:20.355Z,21.83
2023-02-11T15:01:56.410Z,21.80
2023-02-11T15:04:36.088Z,21.75
2023-02-11T15:07:11.905Z,21.74
2023-02-11T15:09:52.480Z,21.74
2023-02-11T15:12:28.422Z,21.73
2023-02-11T15:15:01.136Z,21.74
2023-02-11T15:17:33.913Z,21.72
2023-02-11T15:20:15.580Z,21.71
2023-02-11T15:22:56.354Z,21.68
2023-02-11T15:25:29.152Z,21.69
2023-02-11T15:28:02.390Z,21.62
2023-02-11T15:30:35.267Z,21.64
2023-02-11T15:33:25.195Z,21.64
2023-02-11T15:36:01.565Z,21.54
2023-02-11T15:38:34.128Z,21.58
2023-02-11T15:41:34.643Z,21.59
2023-02-11T15:44:28.574Z,21.64
2023-02-11T15:47:01.202Z,21.61
2023-02-11T15:49:33.888Z,21.62
2023-02-11T15:52:08.431Z,21.60
2023-02-11T15:54:47.807Z,21.63
2023-02-11T15:57:22.942Z,21.66
2023-02-11T15:59:56.853Z,21.70
2023-02-11T16:02:34.662Z,21.66
2023-02-11T16:05:09.483Z,21.66
2023-02-11T16:07:41.890Z,21.64
2023-02-11T16:10:20.158Z,21.70
2023-02-11T16:12:55.629Z,21.65
2023-02-11T16:15:58.261Z,21.77
2023-02-11T16:18:39.065Z,21.67
2023-02-11T16:21:17.411Z,21.64
2023-02-11T16:23:54.650Z,21.63
2023-02-11T16:26:34.503Z,21.63
2023-02-11T16:29:15.010Z,21.60
2023-02-11T16:31:48.860Z,21.64
2023-02-11T16:34:24.761Z,21.57
2023-02-11T16:36:57.285Z,21.62
2023-02-11T16:39:29.787Z,21.58
2023-02-11T16:42:02.703Z,21.60
2023-02-11T16:44:35.465Z,21.60
2023-02-11T16:47:24.038Z,21.58
2023-02-11T16:49:58.612Z,21.58
2023-02-11T16:52:31.763Z,21.52
2023-02-11T16:55:06.096Z,21.52
2023-02-11T16:57:38.730Z,21.52
2023-02-11T17:00:16.334Z,21.54
2023-02-11T17:02:48.856Z,21.49
2023-02-11T17:05:25.138Z,21.45
2023-02-11T17:07:58.031Z,21.45
2023-02-11T17:10:30.788Z,21.46
2023-02-11T17:13:05.061Z,21.50
2023-02-11T17:15:37.555Z,21.44
2023-02-11T17:18:14.276Z,21.39
2023-02-11T17:20:47.042Z,21.39
2023-02-11T17:23:19.657Z,21.41
2023-02-11T17:25:56.651Z,21.36
2023-02-11T17:28:29.502Z,21.40
2023-02-11T17:31:09.002Z,21.36
2023-02-11T17:33:42.796Z,21.47
2023-02-11T17:36:15.363Z,21.39
2023-02-11T17:38:47.851Z,21.29
2023-02-11T17:41:20.402Z,21.39
2023-02-11T17:43:53.274Z,21.29
2023-02-11T17:46:28.128Z,21.30
2023-02-11T17:49:02.142Z,21.14
2023-02-11T17:51:38.574Z,21.22
2023-02-11T17:54:15.970Z,21.23
2023-02-11T17:56:50.712Z,21.23
2023-02-11T17:59:23.428Z,21.22
2023-02-11T18:01:55.944Z,21.23
2023-02-11T18:04:28.513Z,21.17
2023-02-11T18:07:01.118Z,21.17
2023-02-11T18:09:40.899Z,21.23
2023-02-11T18:12:13.528Z,21.25
2023-02-11T18:14:46.028Z,21.23
2023-02-11T18:17:18.545Z,21.23
2023-02-11T18:19:54.570Z,21.27
2023-02-11T18:22:27.547Z,21.32
2023-02-11T18:25:00.060Z,21.18
2023-02-11T18:27:32.844Z,21.23
2023-02-11T18:30:07.718Z,21.26
2023-02-11T18:32:40.294Z,21.22
2023-02-11T18:35:15.131Z,21.22
2023-02-11T18:37:48.093Z,21.27
2023-02-11T18:40:20.632Z,21.22
2023-02-11T18:42:53.175Z,21.20
2023-02-11T18:45:28.528Z,21.18
2023-02-11T18:48:03.530Z,21.16
2023-02-11T18:50:36.034Z,21.18
2023-02-11T18:53:08.651Z,21.16
2023-02-11T18:55:44.153Z,21.12
2023-02-11T18:58:16.680Z,21.08
2023-02-11T19:00:50.842Z,21.07
2023-02-11T19:03:23.338Z,21.10
2023-02-11T19:05:55.876Z,21.06
2023-02-11T19:08:28.487Z,21.06
2023-02-11T19:11:04.342Z,21.00
2023-02-11T19:13:36.886Z,21.00
2023-02-11T19:16:11.680Z,20.98
2023-02-11T19:18:44.614Z,21.00
2023-02-11T19:21:17.136Z,20.94
2023-02-11T19:23:49.663Z,20.94
2023-02-11T19:26:29.392Z,20.98
2023-02-11T19:29:02.291Z,21.06
2023-02-11T19:31:35.118Z,21.02
2023-02-11T19:34:08.137Z,20.97
2023-02-11T19:36:41.617Z,20.97
2023-02-11T19:39:14.251Z,20.98
2023-02-11T19:41:47.177Z,20.95
2023-02-11T19:44:19.798Z,20.91
2023-02-11T19:46:53.285Z,20.99
2023-02-11T19:49:26.377Z,20.94
2023-02-11T19:51:59.175Z,21.01
2023-02-11T19:54:31.609Z,20.86
2023-02-11T19:57:04.139Z,20.84
2023-02-11T19:59:36.702Z,20.88
2023-02-11T20:02:12.934Z,20.86
2023-02-11T20:04:46.166Z,20.84
2023-02-11T20:07:18.669Z,20.89
2023-02-11T20:09:53.543Z,20.90
2023-02-11T20:12:26.004Z,20.81
2023-02-11T20:14:58.500Z,20.98
2023-02-11T20:17:31.071Z,20.93
2023-02-11T20:20:03.623Z,20.96
2023-02-11T20:22:36.239Z,21.03
2023-02-11T20:25:10.826Z,21.08
2023-02-11T20:27:43.339Z,21.14
2023-02-11T20:30:16.611Z,21.17
2023-02-11T20:32:49.128Z,21.23
2023-02-11T20:35:21.601Z,21.26
2023-02-11T20:37:54.161Z,21.33
2023-02-11T20:40:26.627Z,21.35
2023-02-11T20:42:59.314Z,21.42
2023-02-11T20:45:35.118Z,21.48
2023-02-11T20:48:07.618Z,21.50
2023-02-11T20:50:40.268Z,21.56
2023-02-11T20:53:12.808Z,21.64
2023-02-11T20:55:45.374Z,21.66
2023-02-11T20:58:17.885Z,21.66
2023-02-11T21:00:50.415Z,21.71
2023-02-11T21:03:22.974Z,21.74
2023-02-11T21:05:58.823Z,21.68
2023-02-11T21:08:31.384Z,21.70
2023-02-11T21:11:04.080Z,21.72
2023-02-11T21:13:37.881Z,21.79
2023-02-11T21:16:16.428Z,21.68
2023-02-11T21:18:50.685Z,21.71
2023-02-11T21:21:23.892Z,21.68
2023-02-11T21:23:58.299Z,21.63
2023-02-11T21:26:30.877Z,21.63
2023-02-11T21:29:05.339Z,21.65
2023-02-11T21:31:38.530Z,21.65
2023-02-11T21:34:11.221Z,21.63
2023-02-11T21:36:45.143Z,21.59
2023-02-11T21:39:19.142Z,21.55
2023-02-11T21:41:52.184Z,21.50
2023-02-11T21:44:24.715Z,21.50
2023-02-11T21:46:57.263Z,21.54
2023-02-11T21:49:29.750Z,21.49
2023-02-11T21:52:02.260Z,21.50
2023-02-11T21:54:34.737Z,21.56
2023-02-11T21:57:07.269Z,21.52
2023-02-11T21:59:39.850Z,21.49
2023-02-11T22:02:12.341Z,21.49
2023-02-11T22:04:44.884Z,21.51
2023-02-11T22:07:18.215Z,21.53
2023-02-11T22:09:52.154Z,21.48
2023-02-11T22:12:24.617Z,21.48
2023-02-11T22:14:57.135Z,21.44
2023-02-11T22:17:29.723Z,21.45
2023-02-11T22:20:02.347Z,21.39
2023-02-11T22:22:35.270Z,21.37
2023-02-11T22:25:08.163Z,21.35
2023-02-11T22:27:40.609Z,21.36
2023-02-11T22:30:14.147Z,21.33
2023-02-11T22:32:47.306Z,21.34
2023-02-11T22:35:19.945Z,21.38
2023-02-11T22:37:52.454Z,21.28
2023-02-11T22:40:25.002Z,21.26
2023-02-11T22:42:57.452Z,21.26
2023-02-11T22:45:29.910Z,21.26
2023-02-11T22:48:02.378Z,21.25
2023-02-11T22:50:35.198Z,21.24
2023-02-11T22:53:07.758Z,21.22
2023-02-11T22:55:40.428Z,21.28
2023-02-11T22:58:12.939Z,21.18
2023-02-11T23:00:45.520Z,21.16
2023-02-11T23:03:18.002Z,21.22
2023-02-11T23:05:50.573Z,21.20
2023-02-11T23:08:23.118Z,21.16
2023-02-11T23:10:55.608Z,21.21
2023-02-11T23:13:28.054Z,21.18
2023-02-11T23:16:08.827Z,21.11
2023-02-11T23:18:43.387Z,21.12
2023-02-11T23:21:22.188Z,21.08
2023-02-11T23:24:11.838Z,21.10
2023-02-11T23:26:44.871Z,21.16
2023-02-11T23:29:17.459Z,21.15
2023-02-11T23:31:50.125Z,21.13
2023-02-11T23:34:25.411Z,21.10
2023-02-11T23:36:59.145Z,21.12
2023-02-11T23:39:31.635Z,21.12
2023-02-11T23:42:04.491Z,21.11
2023-02-11T23:44:37.009Z,21.06
2023-02-11T23:47:09.653Z,21.10
2023-02-11T23:49:42.192Z,21.04
2023-02-11T23:52:15.017Z,21.06
2023-02-11T23:54:48.213Z,21.07
2023-02-11T23:57:20.748Z,21.09
2023-02-11T23:59:53.198Z,21.07
